Time;durP1;ratioP1;P1;durP2;ratioP2;P2;SDS_P1;SDS_P2;PMS_P1;PMS_P2;Temp;Humidity;BMP_temperature;BMP_pressure;BME280_temperature;BME280_humidity;BME280_pressure;Samples;Min_cycle;Max_cycle;Signal;HPM_P1;HPM_P2
2021/06/28 00:13:03;;;;;;;13.63;6.28;;;;;;;19.22;100.00;94927.78;10448654;28;20065;-78
2021/06/28 00:18:08;;;;;;;12.27;6.80;;;;;;;19.15;100.00;94938.38;10454176;28;20827;-78
2021/06/28 00:23:09;;;;;;;15.75;7.22;;;;;;;19.09;100.00;94943.97;10455402;28;20064;-78
2021/06/28 00:28:10;;;;;;;11.52;6.53;;;;;;;19.04;100.00;94933.25;10451502;28;20481;-78
2021/06/28 00:33:13;;;;;;;13.77;7.60;;;;;;;18.90;100.00;94927.16;10458339;28;20488;-78
2021/06/28 00:38:15;;;;;;;12.40;5.75;;;;;;;18.81;100.00;94932.59;10458362;28;20458;-78
2021/06/28 00:43:16;;;;;;;11.40;6.60;;;;;;;18.82;100.00;94931.44;10459381;28;20070;-78
2021/06/28 00:48:18;;;;;;;10.35;6.18;;;;;;;18.77;100.00;94926.19;10459050;28;20029;-78
2021/06/28 00:53:22;;;;;;;10.88;6.80;;;;;;;18.73;100.00;94931.47;10458528;28;20028;-78
2021/06/28 00:58:23;;;;;;;12.00;7.78;;;;;;;18.73;100.00;94926.03;10458610;28;20108;-78
2021/06/28 01:03:23;;;;;;;9.10;6.80;;;;;;;18.60;100.00;94919.63;10458434;28;20801;-78
2021/06/28 01:08:23;;;;;;;10.37;6.00;;;;;;;18.56;100.00;94921.38;10457929;28;20021;-78
2021/06/28 01:13:25;;;;;;;14.43;6.77;;;;;;;18.52;100.00;94925.84;10457834;28;20025;-78
2021/06/28 01:18:26;;;;;;;10.65;7.30;;;;;;;18.39;100.00;94927.59;10457719;28;20777;-79
2021/06/28 01:23:29;;;;;;;13.45;6.40;;;;;;;18.23;100.00;94932.69;10456740;28;20029;-79
2021/06/28 01:28:31;;;;;;;9.55;5.35;;;;;;;18.23;100.00;94932.69;10456316;28;20029;-78
2021/06/28 01:33:31;;;;;;;11.27;6.03;;;;;;;18.07;100.00;94936.97;10457324;28;20427;-78
2021/06/28 01:38:33;;;;;;;8.45;6.22;;;;;;;17.97;100.00;94937.25;10456394;28;20043;-77
2021/06/28 01:43:33;;;;;;;10.23;5.88;;;;;;;17.90;100.00;94940.41;10455886;28;20029;-78
2021/06/28 01:48:36;;;;;;;10.15;6.60;;;;;;;17.64;100.00;94943.81;10456319;28;20032;-78
2021/06/28 01:53:38;;;;;;;11.07;6.15;;;;;;;17.50;100.00;94943.91;10455583;28;20594;-78
2021/06/28 01:58:39;;;;;;;9.27;5.90;;;;;;;17.52;100.00;94943.59;10455915;28;20040;-78
2021/06/28 02:03:39;;;;;;;11.03;6.47;;;;;;;17.34;100.00;94940.00;10452440;28;20025;-77
2021/06/28 02:08:39;;;;;;;12.27;6.00;;;;;;;17.14;100.00;94944.03;10452234;28;20118;-77
2021/06/28 02:13:40;;;;;;;13.00;7.27;;;;;;;17.07;100.00;94949.91;10455081;28;20029;-77
2021/06/28 02:18:41;;;;;;;15.32;6.55;;;;;;;17.18;100.00;94953.97;10470031;28;20130;-78
2021/06/28 02:23:41;;;;;;;11.77;7.20;;;;;;;17.23;100.00;94953.84;10455005;28;20028;-77
2021/06/28 02:28:45;;;;;;;15.13;7.88;;;;;;;17.17;100.00;94954.28;10454331;28;20048;-77
2021/06/28 02:33:46;;;;;;;8.18;5.80;;;;;;;17.08;100.00;94957.72;10453975;28;20104;-77
2021/06/28 02:38:47;;;;;;;11.52;6.70;;;;;;;17.00;100.00;94953.03;10453794;28;20071;-77
2021/06/28 02:43:49;;;;;;;14.52;7.28;;;;;;;16.97;100.00;94955.56;10453116;28;20049;-78
2021/06/28 02:48:50;;;;;;;11.30;6.88;;;;;;;16.96;100.00;94948.53;10454462;28;20508;-79
2021/06/28 02:53:50;;;;;;;12.63;6.32;;;;;;;17.05;100.00;94952.09;10454315;28;20049;-78
2021/06/28 02:58:57;;;;;;;9.63;6.28;;;;;;;17.02;100.00;94955.44;10452634;28;20028;-78
2021/06/28 03:03:57;;;;;;;14.32;6.65;;;;;;;17.09;100.00;94963.94;10466859;28;20091;-77
2021/06/28 03:08:57;;;;;;;14.77;6.95;;;;;;;16.99;100.00;94964.22;10449801;28;20075;-79
2021/06/28 03:13:58;;;;;;;8.90;6.53;;;;;;;16.96;100.00;94964.81;10453223;28;20544;-79
2021/06/28 03:18:59;;;;;;;15.70;7.10;;;;;;;16.89;100.00;94965.25;10453132;28;20288;-78
2021/06/28 03:23:59;;;;;;;17.42;7.28;;;;;;;16.79;100.00;94962.75;10451859;28;20104;-79
2021/06/28 03:29:00;;;;;;;20.83;8.27;;;;;;;16.85;100.00;94964.22;10451588;28;20016;-77
2021/06/28 03:34:01;;;;;;;11.60;7.10;;;;;;;16.90;100.00;94970.38;10450522;28;20033;-77
2021/06/28 03:39:02;;;;;;;8.52;6.35;;;;;;;17.07;100.00;94966.19;10447459;28;20686;-78
2021/06/28 03:44:04;;;;;;;9.45;5.95;;;;;;;17.17;100.00;94976.00;10443590;28;20017;-79
2021/06/28 03:49:04;;;;;;;10.43;6.05;;;;;;;17.25;100.00;94977.97;10446789;28;20028;-78
2021/06/28 03:54:05;;;;;;;11.20;6.60;;;;;;;17.26;100.00;94982.28;10451244;28;20028;-78
2021/06/28 03:59:05;;;;;;;17.60;6.03;;;;;;;17.35;100.00;94982.34;10451869;28;20353;-78
2021/06/28 04:04:06;;;;;;;8.97;5.73;;;;;;;17.27;100.00;94980.38;10453047;28;20025;-77
2021/06/28 04:09:06;;;;;;;12.20;6.10;;;;;;;17.38;100.00;94981.72;10453892;28;20025;-77
2021/06/28 04:14:07;;;;;;;19.47;7.57;;;;;;;17.68;100.00;94987.47;10445606;28;20706;-80
2021/06/28 04:19:07;;;;;;;15.98;7.07;;;;;;;18.07;100.00;94985.91;10429643;28;20030;-77
2021/06/28 04:24:08;;;;;;;10.23;6.23;;;;;;;18.69;100.00;94984.94;10429172;28;20967;-76
2021/06/28 04:29:08;;;;;;;12.80;5.85;;;;;;;19.26;100.00;94985.97;10452636;28;20025;-77
2021/06/28 04:34:09;;;;;;;19.50;6.30;;;;;;;19.82;100.00;94988.75;10450788;28;20049;-77
2021/06/28 04:39:09;;;;;;;13.90;5.78;;;;;;;20.15;100.00;94993.59;10452962;28;20112;-77
2021/06/28 04:44:09;;;;;;;10.23;5.40;;;;;;;20.48;100.00;94990.22;10452206;28;20098;-77
2021/06/28 04:49:10;;;;;;;10.93;4.90;;;;;;;20.95;100.00;94998.28;10450670;28;20634;-78
2021/06/28 04:54:10;;;;;;;8.10;4.17;;;;;;;21.17;100.00;94993.63;10450274;28;20515;-77
2021/06/28 04:59:10;;;;;;;7.82;4.55;;;;;;;20.91;100.00;95007.50;10449061;28;20397;-77
2021/06/28 05:04:11;;;;;;;8.93;4.83;;;;;;;21.04;100.00;95000.16;10449540;28;20052;-78
2021/06/28 05:09:11;;;;;;;7.80;4.77;;;;;;;21.04;100.00;95009.13;10452419;28;20025;-77
2021/06/28 05:14:12;;;;;;;5.80;4.50;;;;;;;21.29;100.00;95009.28;10452221;28;20275;-76
2021/06/28 05:19:12;;;;;;;6.72;4.75;;;;;;;21.21;100.00;95012.88;10448070;28;20364;-75
2021/06/28 05:24:12;;;;;;;7.63;4.40;;;;;;;22.11;100.00;95007.84;10447623;28;20111;-76
2021/06/28 05:29:13;;;;;;;6.30;4.50;;;;;;;22.91;100.00;95014.66;10447507;28;20021;-76
2021/06/28 05:34:13;;;;;;;6.38;4.30;;;;;;;23.11;100.00;95014.84;10445762;28;20041;-75
2021/06/28 05:39:14;;;;;;;8.23;4.27;;;;;;;23.81;100.00;95009.03;10446522;28;20074;-76
2021/06/28 05:44:14;;;;;;;8.20;4.13;;;;;;;24.38;100.00;95019.91;10446790;28;20036;-76
2021/06/28 05:49:15;;;;;;;10.60;4.00;;;;;;;25.13;100.00;95025.56;10461285;28;20051;-75
2021/06/28 05:54:15;;;;;;;8.32;5.07;;;;;;;25.40;100.00;95035.63;10445930;28;20028;-76
2021/06/28 05:59:15;;;;;;;15.23;5.35;;;;;;;26.40;99.22;95032.38;10445865;28;20032;-76
2021/06/28 06:04:16;;;;;;;9.33;4.60;;;;;;;26.93;88.78;95035.22;10439039;28;20028;-76
2021/06/28 06:09:16;;;;;;;13.90;6.93;;;;;;;27.90;80.84;95032.16;10445326;28;20112;-76
2021/06/28 06:14:16;;;;;;;9.97;4.00;;;;;;;28.43;69.04;95037.44;10445138;28;20028;-76
2021/06/28 06:19:17;;;;;;;8.23;3.90;;;;;;;29.10;62.61;95026.50;10445194;28;20078;-76
2021/06/28 06:24:19;;;;;;;7.20;3.30;;;;;;;28.71;54.99;95033.34;10454093;28;20108;-76
2021/06/28 06:29:19;;;;;;;6.05;3.50;;;;;;;29.57;51.18;95026.75;10444193;28;20408;-76
2021/06/28 06:34:22;;;;;;;6.87;3.47;;;;;;;30.72;50.31;95027.03;10444356;28;20045;-76
2021/06/28 06:39:22;;;;;;;11.77;4.50;;;;;;;31.71;49.84;95032.03;10445103;28;20025;-76
2021/06/28 06:44:24;;;;;;;6.67;3.57;;;;;;;30.86;50.14;95029.03;10443716;28;20081;-77
2021/06/28 06:49:24;;;;;;;8.73;4.03;;;;;;;32.05;48.52;95031.47;10444918;28;20023;-76
2021/06/28 06:54:25;;;;;;;7.20;4.05;;;;;;;32.69;44.33;95018.38;10445104;28;20035;-76
2021/06/28 06:59:26;;;;;;;12.13;3.30;;;;;;;31.22;46.21;95029.00;10444870;28;20025;-76
2021/06/28 07:04:26;;;;;;;10.88;3.53;;;;;;;32.28;44.30;95022.63;10445205;28;20033;-76
2021/06/28 07:09:28;;;;;;;5.67;2.93;;;;;;;33.10;41.00;95014.84;10444930;28;20040;-76
2021/06/28 07:14:28;;;;;;;15.70;5.00;;;;;;;33.29;41.40;95010.66;10444747;28;20083;-76
2021/06/28 07:19:29;;;;;;;6.33;2.70;;;;;;;33.73;40.00;95017.31;10445178;28;20095;-76
2021/06/28 07:24:30;;;;;;;8.75;3.30;;;;;;;34.89;40.10;95001.75;10444316;28;20029;-76
2021/06/28 07:29:30;;;;;;;5.05;3.15;;;;;;;35.75;36.38;95000.13;10443501;28;20500;-76
2021/06/28 07:34:31;;;;;;;3.67;2.87;;;;;;;36.78;35.84;94995.44;10444360;28;20096;-76
2021/06/28 07:39:31;;;;;;;15.02;3.42;;;;;;;36.84;35.14;94983.72;10444240;28;20037;-76
2021/06/28 07:44:31;;;;;;;11.47;2.83;;;;;;;37.88;32.43;94989.31;10444480;28;20028;-76
2021/06/28 07:49:32;;;;;;;3.23;2.60;;;;;;;38.13;32.28;94985.75;10444183;28;20263;-76
2021/06/28 07:54:33;;;;;;;7.97;2.83;;;;;;;38.91;29.77;94992.16;10444166;28;20053;-76
2021/06/28 07:59:34;;;;;;;6.13;2.47;;;;;;;39.04;30.75;94994.16;10444238;28;20029;-76
2021/06/28 08:04:34;;;;;;;5.40;2.27;;;;;;;39.73;29.78;94989.72;10444181;28;20027;-77
2021/06/28 08:09:34;;;;;;;2.80;1.90;;;;;;;39.59;28.31;94991.84;10444070;28;20024;-76
2021/06/28 08:14:35;;;;;;;2.70;2.20;;;;;;;38.94;26.89;94991.25;10443817;28;20912;-76
2021/06/28 08:19:35;;;;;;;3.90;2.10;;;;;;;39.77;24.88;94979.94;10443527;28;20033;-76
2021/06/28 08:24:36;;;;;;;2.53;1.73;;;;;;;40.60;25.84;94990.84;10443600;28;20091;-76
2021/06/28 08:29:37;;;;;;;3.95;2.58;;;;;;;37.63;26.52;94993.59;10443380;28;20534;-75
2021/06/28 08:34:37;;;;;;;4.53;2.60;;;;;;;38.97;26.42;95001.56;10443350;28;20041;-75
2021/06/28 08:39:37;;;;;;;12.73;3.10;;;;;;;39.86;26.56;94995.31;10448158;28;20040;-75
2021/06/28 08:44:38;;;;;;;4.70;1.30;;;;;;;40.31;25.33;94991.94;10450785;28;20048;-75
2021/06/28 08:49:42;;;;;;;7.80;1.50;;;;;;;40.92;24.55;94985.94;10450285;28;20048;-75
2021/06/28 08:54:42;;;;;;;3.10;1.13;;;;;;;41.57;19.51;94985.97;10450229;28;20315;-75
2021/06/28 08:59:43;;;;;;;4.87;2.03;;;;;;;41.17;21.53;94978.44;10450154;28;20111;-75
2021/06/28 09:05:00;;;;;;;3.47;1.67;;;;;;;40.98;21.56;94977.63;10449869;28;20032;-75
2021/06/28 09:10:01;;;;;;;3.05;1.20;;;;;;;40.12;21.12;94979.84;10449783;28;20027;-75
2021/06/28 09:15:02;;;;;;;2.57;1.60;;;;;;;40.21;21.94;94979.09;10449585;28;20029;-76
2021/06/28 09:20:12;;;;;;;4.25;2.40;;;;;;;39.69;22.12;94967.38;10450167;28;20202;-75
2021/06/28 09:25:36;;;;;;;4.47;2.10;;;;;;;39.48;24.42;94966.88;10447674;28;20029;-75
2021/06/28 09:30:48;;;;;;;5.00;1.92;;;;;;;40.78;24.71;94975.22;10464372;28;20116;-75
2021/06/28 09:35:48;;;;;;;8.35;2.25;;;;;;;41.79;22.70;94973.75;10449032;28;20061;-75
2021/06/28 09:40:49;;;;;;;5.57;2.00;;;;;;;42.99;22.10;94967.59;10448652;28;20029;-75
2021/06/28 09:45:54;;;;;;;4.97;1.60;;;;;;;43.29;20.55;94964.88;10448019;28;20029;-76
2021/06/28 09:51:17;;;;;;;5.60;1.52;;;;;;;43.44;20.80;94969.78;10447532;28;20100;-76
2021/06/28 09:56:36;;;;;;;2.72;1.55;;;;;;;44.88;18.51;94962.69;10448389;28;20725;-76
2021/06/28 10:01:36;;;;;;;7.13;1.60;;;;;;;43.16;19.61;94965.16;10447528;28;20036;-76
2021/06/28 10:06:38;;;;;;;4.37;1.57;;;;;;;43.61;20.23;94973.75;10447533;28;20033;-75
2021/06/28 10:11:45;;;;;;;2.63;1.73;;;;;;;42.66;21.21;94976.13;10447504;28;20029;-76
2021/06/28 10:16:46;;;;;;;3.67;1.58;;;;;;;43.05;21.48;94955.66;10447668;28;20893;-75
2021/06/28 10:21:46;;;;;;;4.10;1.45;;;;;;;43.97;19.93;94952.00;10447655;28;20400;-76
2021/06/28 10:26:47;;;;;;;6.27;1.33;;;;;;;41.79;22.25;94951.94;10447086;28;20029;-76
2021/06/28 10:31:48;;;;;;;7.53;1.75;;;;;;;42.57;22.02;94943.03;10447212;28;20144;-75
2021/06/28 10:36:54;;;;;;;1.27;0.90;;;;;;;43.53;20.83;94947.88;10446694;28;20079;-76
2021/06/28 10:41:55;;;;;;;4.55;1.25;;;;;;;44.23;19.68;94937.22;10451491;28;20056;-76
2021/06/28 10:46:56;;;;;;;1.85;0.90;;;;;;;44.75;16.69;94939.56;10446324;28;20035;-76
2021/06/28 10:51:57;;;;;;;1.30;1.02;;;;;;;44.87;18.26;94924.25;10445967;28;20037;-76
2021/06/28 10:56:58;;;;;;;2.30;0.90;;;;;;;45.44;18.20;94922.09;10445613;28;20086;-76
2021/06/28 11:01:58;;;;;;;3.72;1.23;;;;;;;43.47;20.90;94915.06;10445411;28;20108;-76
2021/06/28 11:06:58;;;;;;;2.03;1.27;;;;;;;40.80;21.90;94916.34;10446074;28;20033;-76
2021/06/28 11:11:59;;;;;;;2.13;1.42;;;;;;;37.93;24.79;94915.03;10445580;28;20090;-75
2021/06/28 11:17:09;;;;;;;6.10;1.45;;;;;;;36.22;26.23;94906.00;10444595;28;20102;-75
2021/06/28 11:22:28;;;;;;;3.38;1.70;;;;;;;34.80;26.94;94909.34;10444684;28;20492;-75
2021/06/28 11:27:29;;;;;;;4.88;2.05;;;;;;;33.91;30.45;94902.03;10445001;28;20032;-76
2021/06/28 11:32:30;;;;;;;7.35;1.40;;;;;;;33.52;29.68;94901.34;10445018;28;20040;-76
2021/06/28 11:37:34;;;;;;;4.97;2.05;;;;;;;32.63;30.46;94889.22;10444464;28;20428;-76
2021/06/28 11:42:36;;;;;;;6.82;1.85;;;;;;;32.58;32.82;94889.66;10444624;28;20065;-75
2021/06/28 11:47:49;;;;;;;5.88;1.30;;;;;;;32.20;29.85;94891.16;10444757;28;20033;-75
2021/06/28 11:52:51;;;;;;;1.75;1.23;;;;;;;31.72;30.90;94880.00;10443528;28;20033;-75
2021/06/28 11:57:53;;;;;;;3.38;1.23;;;;;;;31.83;30.78;94886.25;10444113;28;20034;-75
2021/06/28 12:03:13;;;;;;;1.23;1.13;;;;;;;31.50;29.97;94878.09;10444205;28;20087;-76
2021/06/28 12:08:23;;;;;;;3.00;2.08;;;;;;;31.46;31.29;94874.56;10444071;28;20033;-75
2021/06/28 12:13:49;;;;;;;3.13;1.50;;;;;;;31.31;32.99;94873.06;10446689;28;20040;-76
2021/06/28 12:19:19;;;;;;;1.80;1.60;;;;;;;31.29;31.86;94867.91;10464547;28;20037;-76
2021/06/28 12:24:20;;;;;;;7.80;1.55;;;;;;;30.87;35.58;94872.44;10443194;28;20055;-76
2021/06/28 12:29:30;;;;;;;5.85;1.45;;;;;;;30.60;31.15;94863.78;10451652;28;20067;-76
2021/06/28 12:34:32;;;;;;;10.75;7.35;;;;;;;30.67;30.47;94858.22;10451529;28;20049;-76
2021/06/28 12:39:33;;;;;;;12.10;6.68;;;;;;;30.77;33.57;94865.72;10451704;28;20037;-76
2021/06/28 12:44:34;;;;;;;6.22;1.55;;;;;;;30.69;31.70;94850.28;10450788;28;20492;-76
2021/06/28 12:49:35;;;;;;;5.40;2.58;;;;;;;30.88;33.40;94859.34;10451244;28;20025;-76
2021/06/28 12:54:35;;;;;;;13.50;2.17;;;;;;;30.85;33.55;94853.41;10450884;28;20037;-76
2021/06/28 12:59:37;;;;;;;1.30;1.20;;;;;;;30.89;30.24;94853.38;10450601;28;20032;-76
2021/06/28 13:04:37;;;;;;;7.03;1.67;;;;;;;30.65;33.42;94838.41;10449977;28;20287;-76
2021/06/28 13:09:38;;;;;;;5.03;1.77;;;;;;;30.64;32.26;94843.19;10450449;28;20747;-76
2021/06/28 13:14:45;;;;;;;15.70;7.37;;;;;;;30.50;33.05;94838.47;10450032;28;20506;-76
2021/06/28 13:19:45;;;;;;;;;;;;;;;30.37;36.39;94839.25;10451779;28;20033;-76
2021/06/28 13:24:51;;;;;;;4.13;2.73;;;;;;;30.01;37.62;94831.75;10447027;28;19908;-76
2021/06/28 13:29:52;;;;;;;8.13;1.95;;;;;;;30.06;33.98;94833.31;10448945;28;20158;-76
2021/06/28 13:34:56;;;;;;;4.50;1.30;;;;;;;30.13;35.94;94831.34;10449171;28;20098;-76
2021/06/28 13:39:58;;;;;;;1.92;1.23;;;;;;;30.09;33.01;94829.78;10448898;28;20041;-76
2021/06/28 13:45:04;;;;;;;3.63;1.77;;;;;;;30.09;33.20;94836.09;10449081;28;20043;-76
2021/06/28 13:50:14;;;;;;;3.97;1.40;;;;;;;29.95;31.87;94831.38;10447590;28;20029;-76
2021/06/28 13:55:14;;;;;;;2.35;1.30;;;;;;;29.95;31.86;94836.91;10463809;28;20021;-76
2021/06/28 14:00:17;;;;;;;2.85;1.70;;;;;;;29.95;33.48;94827.81;10448425;28;20492;-75
2021/06/28 14:05:18;;;;;;;1.55;1.25;;;;;;;29.70;33.69;94825.00;10448274;28;20909;-75
2021/06/28 14:10:19;;;;;;;8.38;1.60;;;;;;;29.53;35.66;94821.00;10447598;28;20102;-76
2021/06/28 14:15:20;;;;;;;5.50;1.58;;;;;;;29.60;33.30;94816.28;10448105;28;20075;-76
2021/06/28 14:20:22;;;;;;;3.23;1.50;;;;;;;29.59;33.98;94822.22;10447590;28;20144;-75
2021/06/28 14:25:23;;;;;;;5.70;1.60;;;;;;;29.60;32.54;94813.53;10446215;28;20274;-75
2021/06/28 14:30:25;;;;;;;4.28;2.33;;;;;;;29.57;34.32;94813.50;10447089;28;20112;-76
2021/06/28 14:35:28;;;;;;;2.42;1.70;;;;;;;29.57;33.16;94810.72;10446276;28;20057;-76
2021/06/28 14:40:28;;;;;;;2.03;1.65;;;;;;;29.56;32.74;94803.63;10446336;28;20519;-76
2021/06/28 14:45:29;;;;;;;2.30;1.42;;;;;;;29.48;33.99;94802.81;10446053;28;20115;-75
2021/06/28 14:50:29;;;;;;;3.80;1.37;;;;;;;29.29;31.07;94798.44;10446119;28;20032;-76
2021/06/28 14:55:30;;;;;;;2.83;2.10;;;;;;;29.36;31.91;94801.25;10445162;28;20036;-75
2021/06/28 15:00:30;;;;;;;4.80;1.92;;;;;;;29.30;31.24;94797.25;10445114;28;20295;-76
2021/06/28 15:05:31;;;;;;;4.50;2.17;;;;;;;29.15;29.46;94801.94;10445633;28;20120;-76
2021/06/28 15:10:31;;;;;;;4.15;2.05;;;;;;;28.97;31.56;94801.91;10445336;28;20267;-76
2021/06/28 15:15:31;;;;;;;2.73;1.73;;;;;;;28.90;30.12;94797.16;10444991;28;20404;-76
2021/06/28 15:20:32;;;;;;;4.90;2.63;;;;;;;28.95;28.94;94801.50;10445160;28;20819;-75
2021/06/28 15:25:32;;;;;;;2.00;1.43;;;;;;;28.93;29.88;94795.59;10444991;28;20340;-76
2021/06/28 15:30:34;;;;;;;4.05;1.63;;;;;;;28.93;29.59;94798.34;10444891;28;20035;-75
2021/06/28 15:35:35;;;;;;;4.80;2.58;;;;;;;28.87;29.97;94791.59;10445346;28;20059;-75
2021/06/28 15:40:35;;;;;;;2.87;1.70;;;;;;;28.90;30.25;94799.91;10444373;28;20040;-76
2021/06/28 15:45:36;;;;;;;3.92;1.40;;;;;;;28.84;30.33;94803.44;10444776;28;20047;-75
2021/06/28 15:50:37;;;;;;;4.20;1.70;;;;;;;28.80;29.13;94795.94;10443635;28;20105;-75
2021/06/28 15:55:37;;;;;;;5.72;3.78;;;;;;;28.82;51.24;94801.06;10444042;28;20033;-75
2021/06/28 16:00:39;;;;;;;4.80;3.23;;;;;;;28.75;56.25;94801.03;10444566;28;20133;-75
2021/06/28 16:05:39;;;;;;;9.88;3.60;;;;;;;28.47;61.04;94800.50;10443756;28;20340;-75
2021/06/28 16:10:40;;;;;;;5.57;2.78;;;;;;;28.40;63.90;94808.75;10443897;28;20522;-75
2021/06/28 16:15:40;;;;;;;4.28;3.10;;;;;;;28.25;63.84;94807.09;10444101;28;20028;-75
2021/06/28 16:20:41;;;;;;;4.75;3.55;;;;;;;28.04;66.42;94808.53;10443980;28;20048;-75
2021/06/28 16:25:42;;;;;;;3.63;3.10;;;;;;;28.01;71.77;94803.78;10442677;28;20025;-75
2021/06/28 16:30:42;;;;;;;3.67;3.03;;;;;;;27.88;69.31;94819.03;10458659;28;20051;-74
2021/06/28 16:35:42;;;;;;;4.07;3.00;;;;;;;27.80;69.10;94821.75;10443418;28;20122;-74
2021/06/28 16:40:43;;;;;;;5.33;3.13;;;;;;;27.63;69.81;94830.69;10443749;28;20041;-74
2021/06/28 16:45:44;;;;;;;5.93;3.13;;;;;;;27.54;70.86;94830.19;10444769;28;20028;-80
2021/06/28 16:50:44;;;;;;;5.17;3.20;;;;;;;27.41;71.87;94829.69;10445178;28;20028;-76
2021/06/28 16:55:45;;;;;;;4.97;3.23;;;;;;;27.57;71.40;94829.44;10423691;28;20039;-76
2021/06/28 17:00:45;;;;;;;6.82;3.42;;;;;;;27.60;75.35;94834.19;10430720;28;20024;-76
2021/06/28 17:05:46;;;;;;;6.20;3.17;;;;;;;27.43;78.85;94836.41;10464496;28;20566;-76
2021/06/28 17:10:46;;;;;;;4.73;2.93;;;;;;;27.34;82.18;94841.41;10441739;28;20053;-76
2021/06/28 17:15:47;;;;;;;4.80;3.03;;;;;;;27.07;86.59;94841.53;10425093;28;20480;-76
2021/06/28 17:20:47;;;;;;;5.57;3.20;;;;;;;26.78;90.63;94854.19;10441403;28;20024;-75
2021/06/28 17:25:48;;;;;;;4.77;3.47;;;;;;;26.52;91.96;94858.53;10434630;28;20400;-75
2021/06/28 17:30:49;;;;;;;7.82;3.10;;;;;;;26.30;90.58;94856.66;10438085;28;20282;-75
2021/06/28 17:35:50;;;;;;;8.40;3.35;;;;;;;26.25;90.70;94855.81;10449923;28;20966;-76
2021/06/28 17:40:50;;;;;;;3.90;3.35;;;;;;;26.15;91.10;94848.19;10447718;28;20055;-76
2021/06/28 17:45:50;;;;;;;9.83;2.97;;;;;;;26.13;91.69;94850.50;10445641;28;20511;-76
2021/06/28 17:50:51;;;;;;;10.57;5.40;;;;;;;26.07;92.22;94855.53;10412034;28;20440;-75
2021/06/28 17:55:51;;;;;;;5.75;3.40;;;;;;;26.04;91.03;94850.78;10443202;28;20025;-77
2021/06/28 18:00:52;;;;;;;6.47;3.10;;;;;;;25.99;91.32;94853.81;10426368;28;20051;-76
2021/06/28 18:05:52;;;;;;;7.95;3.05;;;;;;;25.88;90.98;94864.66;10422266;28;20287;-76
2021/06/28 18:10:53;;;;;;;6.60;3.10;;;;;;;25.71;94.04;94854.94;10423138;28;20029;-76
2021/06/28 18:15:54;;;;;;;5.57;3.38;;;;;;;25.57;93.51;94857.47;10422728;28;20067;-75
2021/06/28 18:20:55;;;;;;;6.63;3.63;;;;;;;25.42;89.57;94862.72;10420690;28;20558;-75
2021/06/28 18:25:59;;;;;;;5.30;3.33;;;;;;;25.38;88.89;94861.03;10420772;28;20025;-76
2021/06/28 18:31:02;;;;;;;4.10;2.80;;;;;;;25.32;86.15;94866.06;10420709;28;20097;-75
2021/06/28 18:36:02;;;;;;;6.97;3.45;;;;;;;25.20;86.88;94858.75;10423738;28;20080;-76
2021/06/28 18:41:03;;;;;;;8.35;3.60;;;;;;;25.08;92.39;94865.19;10422852;28;20021;-78
2021/06/28 18:46:05;;;;;;;7.07;3.53;;;;;;;25.08;93.54;94869.91;10421168;28;20533;-75
2021/06/28 18:51:05;;;;;;;8.63;3.85;;;;;;;24.98;98.00;94874.03;10421015;28;20098;-77
2021/06/28 19:01:25;;;;;;;7.35;5.13;;;;;;;24.79;100.00;94883.06;10421323;28;20129;-76
2021/06/28 19:06:26;;;;;;;11.00;5.10;;;;;;;24.57;100.00;94895.53;10437833;28;20485;-76
2021/06/28 19:11:27;;;;;;;6.45;4.40;;;;;;;24.34;100.00;94882.47;10418864;28;20037;-76
2021/06/28 19:16:27;;;;;;;7.63;4.20;;;;;;;24.19;100.00;94888.78;10420608;28;20790;-77
2021/06/28 19:21:27;;;;;;;6.30;4.50;;;;;;;24.04;100.00;94888.47;10424831;28;20295;-76
2021/06/28 19:26:29;;;;;;;6.83;4.17;;;;;;;23.95;100.00;94884.31;10426611;28;20121;-76
2021/06/28 19:31:29;;;;;;;8.43;3.60;;;;;;;23.85;100.00;94893.84;10430272;28;20520;-76
2021/06/28 19:36:30;;;;;;;6.20;4.15;;;;;;;23.65;100.00;94887.47;10423077;28;20043;-76
2021/06/28 19:41:33;;;;;;;9.00;4.90;;;;;;;23.40;100.00;94904.09;10423358;28;20095;-76
2021/06/28 19:46:34;;;;;;;6.85;4.22;;;;;;;23.27;100.00;94908.81;10420069;28;20021;-76
2021/06/28 19:51:34;;;;;;;5.88;4.53;;;;;;;23.10;100.00;94898.16;10421929;28;20051;-76
2021/06/28 19:56:35;;;;;;;5.57;4.30;;;;;;;23.02;100.00;94899.88;10421663;28;20029;-76
2021/06/28 20:01:35;;;;;;;8.30;4.47;;;;;;;22.56;100.00;94904.81;10430846;28;20806;-77
2021/06/28 20:06:36;;;;;;;7.28;4.53;;;;;;;22.33;100.00;94908.84;10442647;28;20460;-76
2021/06/28 20:11:36;;;;;;;7.63;4.15;;;;;;;22.33;100.00;94902.56;10442495;28;20152;-75
2021/06/28 20:16:36;;;;;;;6.10;4.30;;;;;;;22.24;100.00;94907.34;10442732;28;20040;-76
2021/06/28 20:21:37;;;;;;;6.67;4.20;;;;;;;22.10;100.00;94907.69;10442500;28;20029;-76
2021/06/28 20:26:38;;;;;;;6.57;4.73;;;;;;;22.07;100.00;94908.38;10442091;28;20037;-75
2021/06/28 20:31:39;;;;;;;6.35;3.90;;;;;;;22.04;100.00;94898.13;10442527;28;20370;-76
2021/06/28 20:36:39;;;;;;;5.50;4.03;;;;;;;21.90;100.00;94906.69;10443898;28;20079;-75
2021/06/28 20:41:39;;;;;;;5.77;3.87;;;;;;;21.78;100.00;94901.97;10449572;28;20033;-76
2021/06/28 20:46:41;;;;;;;6.63;4.03;;;;;;;21.70;100.00;94905.63;10447719;28;20071;-75
2021/06/28 20:51:41;;;;;;;7.63;4.15;;;;;;;21.69;100.00;94907.56;10448567;28;20340;-76
2021/06/28 20:56:41;;;;;;;4.03;3.40;;;;;;;21.67;100.00;94920.75;10424503;28;20480;-76
2021/06/28 21:01:42;;;;;;;10.23;3.53;;;;;;;21.77;100.00;94911.31;10439666;28;20535;-75
2021/06/28 21:06:42;;;;;;;6.72;4.35;;;;;;;21.82;100.00;94917.38;10449387;28;20880;-75
2021/06/28 21:11:43;;;;;;;4.78;3.80;;;;;;;21.93;100.00;94914.97;10448555;28;20055;-76
2021/06/28 21:16:43;;;;;;;7.15;5.07;;;;;;;21.94;100.00;94921.28;10447594;28;20033;-75
2021/06/28 21:21:44;;;;;;;11.43;3.80;;;;;;;21.97;100.00;94917.84;10463395;28;20033;-75
2021/06/28 21:26:44;;;;;;;9.27;4.67;;;;;;;22.01;100.00;94922.28;10447294;28;20041;-76
2021/06/28 21:31:46;;;;;;;13.43;4.67;;;;;;;21.91;100.00;94927.41;10447832;28;20091;-75
2021/06/28 21:36:47;;;;;;;4.50;3.58;;;;;;;21.88;100.00;94934.38;10447755;28;20432;-75
2021/06/28 21:41:47;;;;;;;8.93;4.13;;;;;;;21.76;100.00;94932.41;10445272;28;20021;-75
2021/06/28 21:46:48;;;;;;;6.35;4.88;;;;;;;21.67;100.00;94932.53;10445660;28;20275;-75
2021/06/28 21:51:49;;;;;;;7.40;4.32;;;;;;;21.66;100.00;94936.38;10414330;28;20037;-76
2021/06/28 21:56:49;;;;;;;7.20;4.23;;;;;;;21.54;100.00;94933.63;10405341;28;20040;-76
2021/06/28 22:01:50;;;;;;;7.00;4.00;;;;;;;21.38;100.00;94935.38;10405545;28;20299;-76
2021/06/28 22:06:52;;;;;;;7.30;3.70;;;;;;;21.23;100.00;94926.69;10421332;28;20299;-75
2021/06/28 22:11:53;;;;;;;7.15;4.15;;;;;;;21.29;100.00;94922.63;10404819;28;20036;-77
2021/06/28 22:16:53;;;;;;;5.70;3.60;;;;;;;21.26;100.00;94922.47;10404881;28;20037;-77
2021/06/28 22:21:53;;;;;;;7.37;3.20;;;;;;;21.17;100.00;94922.56;10403302;28;20335;-76
2021/06/28 22:26:54;;;;;;;4.87;3.67;;;;;;;21.13;100.00;94927.09;10403786;28;20033;-76
2021/06/28 22:31:54;;;;;;;4.20;3.27;;;;;;;21.13;100.00;94933.34;10401807;28;20033;-76
2021/06/28 22:36:55;;;;;;;7.45;3.67;;;;;;;21.02;100.00;94926.72;10401470;28;20085;-76
2021/06/28 22:41:55;;;;;;;6.73;4.50;;;;;;;20.84;100.00;94923.31;10402009;28;20033;-76
2021/06/28 22:46:56;;;;;;;4.32;3.90;;;;;;;20.62;100.00;94922.53;10402786;28;20284;-76
2021/06/28 22:51:57;;;;;;;7.57;4.10;;;;;;;20.47;100.00;94931.28;10402282;28;20033;-76
2021/06/28 22:56:57;;;;;;;5.78;4.20;;;;;;;20.34;100.00;94932.34;10400286;28;20033;-76
2021/06/28 23:01:57;;;;;;;8.90;4.55;;;;;;;19.98;100.00;94927.06;10402106;28;20480;-76
2021/06/28 23:06:58;;;;;;;9.50;4.68;;;;;;;20.02;100.00;94918.22;10402188;28;20036;-76
2021/06/28 23:11:58;;;;;;;6.07;4.33;;;;;;;19.95;100.00;94922.28;10402256;28;20028;-76
2021/06/28 23:16:59;;;;;;;7.13;4.72;;;;;;;19.84;100.00;94926.47;10402277;28;20029;-76
2021/06/28 23:21:59;;;;;;;7.93;5.67;;;;;;;19.73;100.00;94928.75;10416972;28;20832;-76
2021/06/28 23:27:00;;;;;;;8.57;5.38;;;;;;;19.74;100.00;94918.63;10416861;28;20420;-76